Time;durP1;ratioP1;P1;durP2;ratioP2;P2;SDS_P1;SDS_P2;PMS_P1;PMS_P2;Temp;Humidity;BMP_temperature;BMP_pressure;BME280_temperature;BME280_humidity;BME280_pressure;Samples;Min_cycle;Max_cycle;Signal;HPM_P1;HPM_P2
2022/07/20 00:01:02;;;;;;;5.30;4.87;;;26.60;45.90;;;;;;5041576;28;20390;-33
2022/07/20 00:03:30;;;;;;;9.10;4.93;;;26.70;46.00;;;;;;5047157;28;20209;-33
2022/07/20 00:05:55;;;;;;;4.70;4.30;;;26.70;46.10;;;;;;5030206;28;20815;-33
2022/07/20 00:11:22;;;;;;;4.67;4.30;;;26.60;46.40;;;;;;5030934;28;20209;-33
2022/07/20 00:13:59;;;;;;;6.03;4.50;;;26.60;46.50;;;;;;5049020;28;20432;-33
2022/07/20 00:16:26;;;;;;;8.13;4.67;;;26.60;46.40;;;;;;5030623;28;20519;-33
2022/07/20 00:18:52;;;;;;;6.80;4.53;;;26.60;46.10;;;;;;5029232;28;20770;-34
2022/07/20 00:21:18;;;;;;;6.50;4.40;;;26.60;46.10;;;;;;5029588;28;20479;-33
2022/07/20 00:23:44;;;;;;;5.87;4.30;;;26.60;46.40;;;;;;5047189;28;20259;-33
2022/07/20 00:26:10;;;;;;;4.60;4.30;;;26.60;46.40;;;;;;5044091;28;20887;-34
2022/07/20 00:28:36;;;;;;;6.40;5.10;;;26.50;46.10;;;;;;5030655;28;20923;-33
2022/07/20 00:31:02;;;;;;;4.83;4.43;;;26.50;46.70;;;;;;5030434;28;20196;-33
2022/07/20 00:33:28;;;;;;;4.60;4.20;;;26.40;46.70;;;;;;5030489;28;20901;-33
2022/07/20 00:35:54;;;;;;;4.83;4.23;;;26.50;46.30;;;;;;5030546;28;20194;-33
2022/07/20 00:38:19;;;;;;;5.07;4.60;;;26.40;46.90;;;;;;5029604;28;20186;-33
2022/07/20 00:40:45;;;;;;;7.37;4.60;;;26.50;46.30;;;;;;5030553;28;20437;-33
2022/07/20 00:43:11;;;;;;;4.70;4.30;;;26.40;46.90;;;;;;5030013;28;20224;-33
2022/07/20 00:45:36;;;;;;;5.97;4.60;;;26.40;47.50;;;;;;5028963;28;20282;-33
2022/07/20 00:48:03;;;;;;;4.90;4.40;;;26.30;48.00;;;;;;5029474;28;20186;-33
2022/07/20 00:50:29;;;;;;;5.03;4.30;;;26.30;47.70;;;;;;5030125;28;20199;-34
2022/07/20 00:52:55;;;;;;;4.63;4.17;;;26.30;47.20;;;;;;5030103;28;20429;-33
2022/07/20 00:55:22;;;;;;;9.13;5.13;;;26.30;47.60;;;;;;5030358;28;20516;-34
2022/07/20 00:57:48;;;;;;;4.70;4.30;;;26.30;48.30;;;;;;5029298;28;20433;-33
2022/07/20 01:00:14;;;;;;;5.40;4.60;;;26.20;49.10;;;;;;5030008;28;20524;-33
2022/07/20 01:02:40;;;;;;;5.20;4.80;;;26.10;49.30;;;;;;5030046;28;20214;-33
2022/07/20 01:05:14;;;;;;;6.87;5.20;;;26.00;49.70;;;;;;5028707;28;20467;-33
2022/07/20 01:07:46;;;;;;;5.83;4.97;;;26.00;49.90;;;;;;5028171;28;20429;-33
2022/07/20 01:10:13;;;;;;;6.57;5.17;;;26.00;48.70;;;;;;5029937;28;20429;-33
2022/07/20 01:12:43;;;;;;;4.93;4.17;;;26.10;47.90;;;;;;5035371;28;20941;-33
2022/07/20 01:15:09;;;;;;;4.80;4.40;;;26.10;48.40;;;;;;5049051;28;20776;-33
2022/07/20 01:17:35;;;;;;;7.17;5.33;;;26.10;48.10;;;;;;5029505;28;20433;-33
2022/07/20 01:20:00;;;;;;;5.60;5.00;;;26.10;48.00;;;;;;5028868;28;20195;-33
2022/07/20 01:22:26;;;;;;;6.70;4.50;;;26.10;47.60;;;;;;5038415;28;20249;-33
2022/07/20 01:24:52;;;;;;;4.23;3.80;;;26.20;47.70;;;;;;5049732;28;20652;-33
2022/07/20 01:27:18;;;;;;;6.40;4.30;;;26.10;48.60;;;;;;5048864;28;20288;-33
2022/07/20 01:29:43;;;;;;;5.70;5.20;;;26.10;47.80;;;;;;5049737;28;20182;-34
2022/07/20 01:32:09;;;;;;;4.97;4.50;;;26.10;47.50;;;;;;5049853;28;20193;-33
2022/07/20 01:34:35;;;;;;;5.63;4.37;;;26.10;47.50;;;;;;5049648;28;20201;-34
2022/07/20 01:37:00;;;;;;;6.33;4.17;;;26.20;47.30;;;;;;5050180;28;20192;-33
2022/07/20 01:39:26;;;;;;;4.90;4.40;;;26.20;47.50;;;;;;5053599;28;20189;-33
2022/07/20 01:41:55;;;;;;;5.20;4.60;;;26.20;47.70;;;;;;5053279;28;20276;-34
2022/07/20 01:44:21;;;;;;;6.17;4.37;;;26.20;47.50;;;;;;5053376;28;20656;-33
2022/07/20 01:46:48;;;;;;;8.07;5.20;;;26.20;47.70;;;;;;5053153;28;20485;-33
2022/07/20 01:49:15;;;;;;;6.23;5.30;;;26.10;47.80;;;;;;5053709;28;20802;-33
2022/07/20 01:51:42;;;;;;;6.17;4.70;;;26.20;47.70;;;;;;5053557;28;20428;-33
2022/07/20 01:54:07;;;;;;;6.10;4.73;;;26.20;47.80;;;;;;5053387;28;20481;-33
2022/07/20 01:56:33;;;;;;;7.50;4.70;;;26.20;47.60;;;;;;5050577;28;20436;-33
2022/07/20 01:58:59;;;;;;;5.97;5.30;;;26.20;47.40;;;;;;5048100;28;20284;-33
2022/07/20 02:01:24;;;;;;;5.93;4.63;;;26.30;47.40;;;;;;5033453;28;20645;-33
2022/07/20 02:03:50;;;;;;;5.30;4.80;;;26.30;47.20;;;;;;5033290;28;20225;-33
2022/07/20 02:06:16;;;;;;;4.40;4.10;;;26.30;46.90;;;;;;5041322;28;20617;-33
2022/07/20 02:08:41;;;;;;;6.20;4.07;;;26.30;46.90;;;;;;5047102;28;20293;-33
2022/07/20 02:11:07;;;;;;;4.87;4.47;;;26.30;46.70;;;;;;5032993;28;20194;-33
2022/07/20 02:13:35;;;;;;;8.90;4.80;;;26.30;46.80;;;;;;5050886;28;20781;-33
2022/07/20 02:16:14;;;;;;;6.40;4.87;;;26.30;46.90;;;;;;5041560;28;20269;-33
2022/07/20 02:18:48;;;;;;;4.53;4.13;;;26.30;46.90;;;;;;5031499;28;20785;-33
2022/07/20 02:21:15;;;;;;;4.77;4.37;;;26.30;46.80;;;;;;5032987;28;21014;-33
2022/07/20 02:23:42;;;;;;;4.53;4.13;;;26.20;46.70;;;;;;5051353;28;20455;-33
2022/07/20 02:26:07;;;;;;;5.93;5.43;;;26.30;47.10;;;;;;5052823;28;20428;-33
2022/07/20 02:28:34;;;;;;;8.80;4.20;;;26.30;47.00;;;;;;5051336;28;20416;-34
2022/07/20 02:31:00;;;;;;;5.10;4.60;;;26.30;46.90;;;;;;5041762;28;20201;-33
2022/07/20 02:33:25;;;;;;;7.80;5.03;;;26.20;46.80;;;;;;5046131;28;20436;-33
2022/07/20 02:35:51;;;;;;;4.43;4.03;;;26.20;46.90;;;;;;5032832;28;20432;-33
2022/07/20 02:38:17;;;;;;;4.03;3.73;;;26.20;46.80;;;;;;5031609;28;20185;-33
2022/07/20 02:40:43;;;;;;;4.47;4.03;;;26.30;46.90;;;;;;5032779;28;20182;-33
2022/07/20 02:43:09;;;;;;;6.20;5.20;;;26.20;47.20;;;;;;5032393;28;20297;-33
2022/07/20 02:45:35;;;;;;;4.87;4.47;;;26.20;47.30;;;;;;5032820;28;20206;-33
2022/07/20 02:48:03;;;;;;;6.40;4.90;;;26.20;47.20;;;;;;5031515;28;20182;-33
2022/07/20 02:50:30;;;;;;;5.30;4.67;;;26.20;46.90;;;;;;5032007;28;20433;-33
2022/07/20 02:52:56;;;;;;;5.00;4.30;;;26.30;47.20;;;;;;5032356;28;20962;-33
2022/07/20 02:55:22;;;;;;;5.90;4.17;;;26.20;47.20;;;;;;5041642;28;20431;-33
2022/07/20 02:57:47;;;;;;;4.40;4.00;;;26.20;47.40;;;;;;5039928;28;20197;-33
2022/07/20 03:00:13;;;;;;;5.20;4.60;;;26.10;47.20;;;;;;5032442;28;20833;-33
2022/07/20 03:02:40;;;;;;;5.70;4.47;;;26.10;47.30;;;;;;5032008;28;20275;-33
2022/07/20 03:05:06;;;;;;;7.00;4.37;;;26.20;46.90;;;;;;5042208;28;20448;-33
2022/07/20 03:07:32;;;;;;;4.80;4.33;;;26.20;46.90;;;;;;5032131;28;20421;-33
2022/07/20 03:09:58;;;;;;;5.60;4.10;;;26.20;46.90;;;;;;5032203;28;20429;-33
2022/07/20 03:12:23;;;;;;;4.57;3.73;;;26.20;46.90;;;;;;5037327;28;20183;-33
2022/07/20 03:14:49;;;;;;;5.50;4.30;;;26.30;46.90;;;;;;5047798;28;20189;-33
2022/07/20 03:17:16;;;;;;;5.43;3.90;;;26.30;46.90;;;;;;5044681;28;20190;-33
2022/07/20 03:19:42;;;;;;;8.63;4.50;;;26.20;47.00;;;;;;5031040;28;20190;-33
2022/07/20 03:22:08;;;;;;;4.37;4.07;;;26.20;47.20;;;;;;5036463;28;20971;-34
2022/07/20 03:24:34;;;;;;;4.60;4.10;;;26.30;47.20;;;;;;5051636;28;20482;-33
2022/07/20 03:26:59;;;;;;;8.00;4.60;;;26.30;47.00;;;;;;5051100;28;20253;-33
2022/07/20 03:29:25;;;;;;;7.90;4.40;;;26.40;46.90;;;;;;5050155;28;20201;-33
2022/07/20 03:31:51;;;;;;;5.63;4.10;;;26.40;46.90;;;;;;5045358;28;20181;-34
2022/07/20 03:34:16;;;;;;;7.23;4.33;;;26.40;46.90;;;;;;5051367;28;20178;-33
2022/07/20 03:36:42;;;;;;;4.20;3.80;;;26.50;46.60;;;;;;5038050;28;20253;-34
2022/07/20 03:39:08;;;;;;;4.50;4.10;;;26.60;46.60;;;;;;5031370;28;20193;-33
2022/07/20 03:41:33;;;;;;;5.73;4.20;;;26.60;46.50;;;;;;5034111;28;20183;-33
2022/07/20 03:43:59;;;;;;;5.63;4.13;;;26.60;46.40;;;;;;5044901;28;20623;-33
2022/07/20 03:46:25;;;;;;;9.80;4.70;;;26.70;46.40;;;;;;5032510;28;20209;-34
2022/07/20 03:48:50;;;;;;;5.40;4.37;;;26.70;46.40;;;;;;5030674;28;20565;-33
2022/07/20 03:51:16;;;;;;;5.10;4.10;;;26.70;46.30;;;;;;5031404;28;20254;-33
2022/07/20 03:53:42;;;;;;;5.00;4.47;;;26.70;46.40;;;;;;5031239;28;20183;-33
2022/07/20 03:56:07;;;;;;;5.43;4.00;;;26.70;46.40;;;;;;5031422;28;20547;-33
2022/07/20 03:58:33;;;;;;;4.67;4.20;;;26.70;46.20;;;;;;5030582;28;20281;-33
2022/07/20 04:00:59;;;;;;;4.13;3.80;;;26.70;46.00;;;;;;5031066;28;20197;-33
2022/07/20 04:03:25;;;;;;;4.53;4.10;;;26.90;46.10;;;;;;5050537;28;20263;-33
2022/07/20 04:05:50;;;;;;;4.97;4.50;;;26.90;46.00;;;;;;5040543;28;20202;-33
2022/07/20 04:08:16;;;;;;;5.37;4.83;;;27.00;45.50;;;;;;5030483;28;20273;-33
2022/07/20 04:10:42;;;;;;;6.70;4.53;;;27.10;45.50;;;;;;5030979;28;20218;-33
2022/07/20 04:13:07;;;;;;;6.10;4.50;;;27.20;45.50;;;;;;5045610;28;20196;-33
2022/07/20 04:15:33;;;;;;;5.37;3.90;;;27.20;45.40;;;;;;5044067;28;20601;-33
2022/07/20 04:17:59;;;;;;;5.83;4.20;;;27.20;45.50;;;;;;5036094;28;20707;-34
2022/07/20 04:20:24;;;;;;;5.50;4.17;;;27.20;45.40;;;;;;5044189;28;20210;-33
2022/07/20 04:22:50;;;;;;;6.37;4.30;;;27.20;45.80;;;;;;5042523;28;20241;-33
2022/07/20 04:25:16;;;;;;;6.33;4.63;;;27.10;46.10;;;;;;5050537;28;20177;-34
2022/07/20 04:27:42;;;;;;;5.43;4.33;;;27.10;46.10;;;;;;5050087;28;20186;-33
2022/07/20 04:30:09;;;;;;;6.23;4.90;;;27.20;46.10;;;;;;5050470;28;20273;-34
2022/07/20 04:32:35;;;;;;;7.03;4.83;;;27.20;46.20;;;;;;5047882;28;20478;-34
2022/07/20 04:35:00;;;;;;;6.70;4.47;;;27.10;47.00;;;;;;5039189;28;20884;-33
2022/07/20 04:37:26;;;;;;;7.33;4.27;;;27.10;47.00;;;;;;5045479;28;20193;-33
2022/07/20 04:39:52;;;;;;;5.10;4.60;;;27.10;46.40;;;;;;5031713;28;20729;-33
2022/07/20 04:42:17;;;;;;;8.10;4.37;;;27.10;46.30;;;;;;5030272;28;20763;-33
2022/07/20 04:44:43;;;;;;;4.97;4.40;;;27.20;46.20;;;;;;5029141;28;20260;-34
2022/07/20 04:47:09;;;;;;;5.67;4.30;;;27.20;46.50;;;;;;5028282;28;20680;-34
2022/07/20 04:49:35;;;;;;;5.67;4.73;;;27.30;46.70;;;;;;5028895;28;20191;-33
2022/07/20 04:52:00;;;;;;;5.20;4.43;;;27.30;46.60;;;;;;5029037;28;20601;-33
2022/07/20 04:54:26;;;;;;;5.13;4.47;;;27.30;46.60;;;;;;5030249;28;20179;-33
2022/07/20 04:56:52;;;;;;;5.33;4.43;;;27.20;46.60;;;;;;5034540;28;20649;-33
2022/07/20 04:59:18;;;;;;;5.77;4.50;;;27.20;47.20;;;;;;5034341;28;20293;-33
2022/07/20 05:01:44;;;;;;;5.53;5.03;;;27.20;46.80;;;;;;5041739;28;20424;-34
2022/07/20 05:04:09;;;;;;;4.90;4.50;;;27.20;46.90;;;;;;5049831;28;20566;-34
2022/07/20 05:06:35;;;;;;;5.30;4.40;;;27.30;47.10;;;;;;5049306;28;20198;-33
2022/07/20 05:09:01;;;;;;;5.40;4.87;;;27.40;46.90;;;;;;5049780;28;20186;-33
2022/07/20 05:11:26;;;;;;;5.10;4.43;;;27.50;46.90;;;;;;5049503;28;20602;-33
2022/07/20 05:13:53;;;;;;;8.63;4.80;;;27.40;46.80;;;;;;5044009;28;20284;-33
2022/07/20 05:16:19;;;;;;;5.83;5.23;;;27.50;47.10;;;;;;5035283;28;20252;-34
2022/07/20 05:18:44;;;;;;;6.90;4.50;;;27.60;46.90;;;;;;5028206;28;20429;-33
2022/07/20 05:21:10;;;;;;;5.40;4.57;;;27.60;47.00;;;;;;5028796;28;20309;-33
2022/07/20 05:23:36;;;;;;;8.27;5.03;;;27.60;47.30;;;;;;5047898;28;20217;-33
2022/07/20 05:26:03;;;;;;;5.63;5.13;;;27.70;47.10;;;;;;5044969;28;20746;-33
2022/07/20 05:28:29;;;;;;;5.40;4.97;;;27.70;47.20;;;;;;5031827;28;20487;-33
2022/07/20 05:30:55;;;;;;;6.60;4.97;;;27.80;47.10;;;;;;5041117;28;20467;-33
2022/07/20 05:33:21;;;;;;;6.60;4.83;;;27.80;46.80;;;;;;5049502;28;20452;-33
2022/07/20 05:35:49;;;;;;;5.40;4.90;;;27.80;47.10;;;;;;5049922;28;20221;-33
2022/07/20 05:38:16;;;;;;;7.50;5.00;;;27.80;47.20;;;;;;5047801;28;20189;-33
2022/07/20 05:40:41;;;;;;;5.30;4.77;;;27.80;47.70;;;;;;5049403;28;20841;-33
2022/07/20 05:43:07;;;;;;;4.83;4.43;;;27.80;47.40;;;;;;5046509;28;20563;-33
2022/07/20 05:45:33;;;;;;;5.90;4.67;;;27.80;47.70;;;;;;5045171;28;20754;-33
2022/07/20 05:47:59;;;;;;;10.90;5.23;;;27.90;48.00;;;;;;5040125;28;20183;-33
2022/07/20 05:50:25;;;;;;;6.07;3.93;;;27.90;47.80;;;;;;5029441;28;20543;-33
2022/07/20 05:52:51;;;;;;;6.50;4.50;;;27.90;47.80;;;;;;5031421;28;20790;-33
2022/07/20 05:55:17;;;;;;;5.67;5.10;;;28.00;48.50;;;;;;5039420;28;20189;-33
2022/07/20 05:57:43;;;;;;;8.43;4.63;;;28.10;47.90;;;;;;5034241;28;20543;-33
2022/07/20 06:00:09;;;;;;;5.80;4.77;;;28.10;48.20;;;;;;5031253;28;20440;-33
2022/07/20 06:02:35;;;;;;;5.63;4.43;;;28.20;47.70;;;;;;5029351;28;20496;-33
2022/07/20 06:05:01;;;;;;;4.97;4.13;;;28.30;48.00;;;;;;5029370;28;20458;-33
2022/07/20 06:07:26;;;;;;;7.10;4.60;;;28.40;47.80;;;;;;5027622;28;20190;-33
2022/07/20 06:09:52;;;;;;;9.50;5.33;;;28.50;48.20;;;;;;5033993;28;20186;-33
2022/07/20 06:12:17;;;;;;;5.97;4.77;;;28.60;47.80;;;;;;5032934;28;20183;-33
2022/07/20 06:14:43;;;;;;;6.07;5.47;;;28.60;47.70;;;;;;5054534;28;20221;-33
2022/07/20 06:17:11;;;;;;;6.63;5.50;;;28.70;47.90;;;;;;5030069;28;20210;-33
2022/07/20 06:19:37;;;;;;;7.83;6.20;;;28.70;47.90;;;;;;5035401;28;20581;-33
2022/07/20 06:22:03;;;;;;;8.80;6.13;;;28.70;48.50;;;;;;5043376;28;20425;-33
2022/07/20 06:24:29;;;;;;;8.33;7.33;;;28.70;48.50;;;;;;5039145;28;20554;-33
2022/07/20 06:26:54;;;;;;;10.00;7.40;;;28.70;48.90;;;;;;5041017;28;20178;-33
2022/07/20 06:29:20;;;;;;;12.43;9.40;;;28.70;49.00;;;;;;5043182;28;20190;-33
2022/07/20 06:31:46;;;;;;;13.17;9.93;;;28.70;50.10;;;;;;5040624;28;20645;-33
2022/07/20 06:34:13;;;;;;;13.80;11.77;;;28.70;50.60;;;;;;5048499;28;20276;-33
2022/07/20 06:36:39;;;;;;;13.50;11.03;;;28.60;51.60;;;;;;5016042;28;20193;-33
2022/07/20 06:39:04;;;;;;;13.23;11.70;;;28.50;51.80;;;;;;5032826;28;20425;-33
2022/07/20 06:41:30;;;;;;;13.63;12.30;;;28.50;52.40;;;;;;5033421;28;20457;-33
2022/07/20 06:43:56;;;;;;;17.67;12.97;;;28.50;52.90;;;;;;5037774;28;20268;-33
2022/07/20 06:46:22;;;;;;;13.90;12.03;;;28.50;53.00;;;;;;5032546;28;20186;-33
2022/07/20 06:48:47;;;;;;;14.60;12.13;;;28.50;53.70;;;;;;5032020;28;20201;-33
2022/07/20 06:51:13;;;;;;;17.60;14.43;;;28.60;54.30;;;;;;5032558;28;20217;-33
2022/07/20 06:53:39;;;;;;;16.47;14.10;;;28.60;54.60;;;;;;5038938;28;20195;-33
2022/07/20 06:56:05;;;;;;;17.80;15.40;;;28.70;54.70;;;;;;5035310;28;20656;-33
2022/07/20 06:58:30;;;;;;;17.97;16.43;;;28.70;55.00;;;;;;5043393;28;20198;-33
2022/07/20 07:00:56;;;;;;;18.57;15.57;;;28.70;55.30;;;;;;5052281;28;20439;-33
2022/07/20 07:03:22;;;;;;;19.63;17.63;;;28.80;55.90;;;;;;5043103;28;20225;-33
2022/07/20 07:05:47;;;;;;;18.27;16.43;;;28.70;55.60;;;;;;5050401;28;20229;-33
2022/07/20 07:08:13;;;;;;;17.80;16.10;;;28.60;56.30;;;;;;5051519;28;20555;-33
2022/07/20 07:10:39;;;;;;;17.90;16.10;;;28.60;56.40;;;;;;5052057;28;20186;-33
2022/07/20 07:13:04;;;;;;;18.17;16.47;;;28.70;56.90;;;;;;5058745;28;20192;-34
2022/07/20 07:15:30;;;;;;;20.90;17.13;;;28.60;56.70;;;;;;5043412;28;20289;-33
2022/07/20 07:17:56;;;;;;;22.60;17.27;;;28.50;56.80;;;;;;5037451;28;20194;-33
2022/07/20 07:20:22;;;;;;;20.00;18.00;;;28.50;57.20;;;;;;5045906;28;20190;-33
2022/07/20 07:22:47;;;;;;;19.77;17.63;;;28.50;57.50;;;;;;5037230;28;20214;-33
2022/07/20 07:25:13;;;;;;;22.70;17.83;;;28.60;57.70;;;;;;5036763;28;20194;-33
2022/07/20 07:27:39;;;;;;;21.83;18.93;;;28.60;57.90;;;;;;5044915;28;20187;-34
2022/07/20 07:30:06;;;;;;;18.93;17.33;;;28.60;57.90;;;;;;5040442;28;20182;-33
2022/07/20 07:32:31;;;;;;;19.67;17.83;;;28.60;58.20;;;;;;5042254;28;20534;-33
2022/07/20 07:34:57;;;;;;;20.93;18.93;;;28.50;58.30;;;;;;5040919;28;20429;-33
2022/07/20 07:37:23;;;;;;;22.87;19.87;;;28.50;58.60;;;;;;5040557;28;20199;-33
2022/07/20 07:39:49;;;;;;;21.20;18.93;;;28.40;59.20;;;;;;5042275;28;20190;-34
2022/07/20 07:42:14;;;;;;;21.07;19.00;;;28.50;59.30;;;;;;5039523;28;20186;-33
2022/07/20 07:44:40;;;;;;;22.03;20.03;;;28.50;60.50;;;;;;5031400;28;20229;-33
2022/07/20 07:47:06;;;;;;;23.00;20.60;;;28.50;60.50;;;;;;5039450;28;20182;-33
2022/07/20 07:49:32;;;;;;;22.47;20.30;;;28.60;60.30;;;;;;5039741;28;20665;-33
2022/07/20 07:51:58;;;;;;;21.37;19.23;;;28.50;60.30;;;;;;5041677;28;20178;-33
2022/07/20 07:54:23;;;;;;;21.17;19.27;;;28.50;62.10;;;;;;5041842;28;20190;-33
2022/07/20 07:56:49;;;;;;;23.53;21.30;;;28.60;62.00;;;;;;5039012;28;20571;-33
2022/07/20 07:59:15;;;;;;;22.77;20.47;;;28.60;62.00;;;;;;5040368;28;20268;-33
2022/07/20 08:01:41;;;;;;;23.73;21.43;;;28.60;62.90;;;;;;5049257;28;20261;-33
2022/07/20 08:04:07;;;;;;;23.33;20.90;;;28.60;62.60;;;;;;5032577;28;20599;-33
2022/07/20 08:06:33;;;;;;;23.00;20.80;;;28.60;62.60;;;;;;5030529;28;20721;-33
2022/07/20 08:08:59;;;;;;;22.43;20.30;;;28.60;63.10;;;;;;5030731;28;20186;-33
2022/07/20 08:11:25;;;;;;;26.60;22.10;;;28.50;63.60;;;;;;5030915;28;20425;-34
2022/07/20 08:13:50;;;;;;;23.60;21.33;;;28.50;64.20;;;;;;5046202;28;20669;-33
2022/07/20 08:16:16;;;;;;;23.50;21.13;;;28.40;63.90;;;;;;5039067;28;20441;-33
2022/07/20 08:18:42;;;;;;;26.43;23.77;;;28.30;63.90;;;;;;5028661;28;20193;-33
2022/07/20 08:21:08;;;;;;;25.30;22.80;;;28.30;64.60;;;;;;5030963;28;20187;-33
2022/07/20 08:23:33;;;;;;;24.53;22.33;;;28.30;64.90;;;;;;5047997;28;20217;-33
2022/07/20 08:25:59;;;;;;;25.27;23.00;;;28.20;64.40;;;;;;5050584;28;20253;-33
2022/07/20 08:28:25;;;;;;;26.23;23.50;;;28.30;64.30;;;;;;5050020;28;20217;-33
2022/07/20 08:30:52;;;;;;;26.53;24.17;;;28.20;64.50;;;;;;5050654;28;20190;-33
2022/07/20 08:33:18;;;;;;;26.17;23.67;;;28.20;64.80;;;;;;5050311;28;20189;-33
2022/07/20 08:35:45;;;;;;;27.17;24.50;;;28.30;64.60;;;;;;5050616;28;20428;-33
2022/07/20 08:38:10;;;;;;;26.73;23.93;;;28.30;64.10;;;;;;5049890;28;20478;-33
2022/07/20 08:40:38;;;;;;;27.00;24.13;;;28.20;63.70;;;;;;5050224;28;20428;-33
2022/07/20 08:43:04;;;;;;;27.10;24.40;;;28.30;64.80;;;;;;5050166;28;20202;-34
2022/07/20 08:45:31;;;;;;;26.90;24.27;;;28.40;64.20;;;;;;5049085;28;20512;-33
2022/07/20 08:48:00;;;;;;;26.33;23.83;;;28.40;64.40;;;;;;5049019;28;20460;-33
2022/07/20 08:50:30;;;;;;;25.83;23.53;;;28.40;64.20;;;;;;5050250;28;20424;-33
2022/07/20 08:52:56;;;;;;;27.47;24.83;;;28.50;64.40;;;;;;5050092;28;20428;-33
2022/07/20 08:55:24;;;;;;;28.43;25.87;;;28.50;64.30;;;;;;5050044;28;20435;-33
2022/07/20 08:57:50;;;;;;;27.43;25.00;;;28.50;65.60;;;;;;5049425;28;20436;-33
2022/07/20 09:00:16;;;;;;;29.07;26.27;;;28.50;65.20;;;;;;5050241;28;20951;-33
2022/07/20 09:02:55;;;;;;;28.57;26.07;;;28.50;65.60;;;;;;5050180;28;20225;-33
2022/07/20 09:05:23;;;;;;;27.70;25.07;;;28.40;65.80;;;;;;5049769;28;20443;-33
2022/07/20 09:07:55;;;;;;;26.57;24.13;;;28.40;65.40;;;;;;5049180;28;20419;-34
2022/07/20 09:10:35;;;;;;;27.53;24.80;;;28.40;66.00;;;;;;5050020;28;20918;-33
2022/07/20 09:13:02;;;;;;;27.43;24.73;;;28.50;65.60;;;;;;5056392;28;20431;-33
2022/07/20 09:15:36;;;;;;;26.90;24.40;;;28.60;65.50;;;;;;5040022;28;20429;-33
2022/07/20 09:18:22;;;;;;;25.97;23.50;;;28.80;66.20;;;;;;5029125;28;20783;-33
2022/07/20 09:21:03;;;;;;;26.60;24.10;;;28.90;66.00;;;;;;5029150;28;20425;-33
2022/07/20 09:23:39;;;;;;;26.40;23.93;;;29.00;66.40;;;;;;5046962;28;20459;-34
2022/07/20 09:26:16;;;;;;;27.00;24.10;;;29.20;65.40;;;;;;5049826;28;20420;-33
2022/07/20 09:28:48;;;;;;;28.03;25.13;;;29.30;64.90;;;;;;5049032;28;20515;-33
2022/07/20 09:31:14;;;;;;;29.27;26.33;;;29.40;66.30;;;;;;5049662;28;20421;-33
2022/07/20 09:34:00;;;;;;;27.80;25.10;;;29.50;66.10;;;;;;5049683;28;20419;-33
2022/07/20 09:36:29;;;;;;;26.33;23.93;;;29.60;65.80;;;;;;5048829;28;20198;-33
2022/07/20 09:39:09;;;;;;;26.33;23.83;;;29.80;65.20;;;;;;5048943;28;20435;-33
2022/07/20 09:41:36;;;;;;;25.77;23.10;;;29.90;64.00;;;;;;5049536;28;20434;-33
2022/07/20 09:44:05;;;;;;;25.73;22.97;;;30.00;64.20;;;;;;5049622;28;20490;-34
2022/07/20 09:46:36;;;;;;;24.43;22.00;;;30.10;64.40;;;;;;5049740;28;20459;-34
2022/07/20 09:49:05;;;;;;;23.63;21.33;;;30.20;63.60;;;;;;5048314;28;20931;-33
2022/07/20 09:51:35;;;;;;;24.53;22.13;;;30.30;62.30;;;;;;5049379;28;20473;-34
2022/07/20 09:54:06;;;;;;;27.13;22.77;;;30.40;63.30;;;;;;5049711;28;20512;-34
2022/07/20 09:56:33;;;;;;;23.30;21.07;;;30.50;63.30;;;;;;5049253;28;20542;-34
2022/07/20 09:59:02;;;;;;;22.93;20.80;;;30.60;62.70;;;;;;5052006;28;20436;-33
2022/07/20 10:01:30;;;;;;;22.73;20.60;;;30.70;60.10;;;;;;5053351;28;20428;-33
2022/07/20 10:03:59;;;;;;;23.50;21.17;;;30.60;59.80;;;;;;5052932;28;20460;-33
2022/07/20 10:06:27;;;;;;;22.37;20.27;;;30.70;61.50;;;;;;5053154;28;20440;-33
2022/07/20 10:08:53;;;;;;;21.83;19.90;;;30.80;60.10;;;;;;5052678;28;20424;-33
2022/07/20 10:11:20;;;;;;;22.07;20.17;;;30.80;60.40;;;;;;5053173;28;20425;-33
2022/07/20 10:13:48;;;;;;;21.77;19.70;;;30.90;60.40;;;;;;5059136;28;20433;-33
2022/07/20 10:16:28;;;;;;;21.83;19.63;;;31.00;60.30;;;;;;5042339;28;20457;-33
2022/07/20 10:18:56;;;;;;;22.73;20.47;;;31.00;60.60;;;;;;5030925;28;20424;-33
2022/07/20 10:21:58;;;;;;;22.97;20.87;;;31.10;60.90;;;;;;5033161;28;20425;-34
2022/07/20 10:24:25;;;;;;;19.87;17.90;;;31.20;60.40;;;;;;5044109;28;21055;-33
2022/07/20 10:27:16;;;;;;;20.50;18.40;;;31.20;60.50;;;;;;5051842;28;20432;-34
2022/07/20 10:29:47;;;;;;;19.23;17.43;;;31.30;59.50;;;;;;5052942;28;20428;-34
2022/07/20 10:32:16;;;;;;;20.50;18.50;;;31.40;59.00;;;;;;5052783;28;20935;-33
2022/07/20 10:34:42;;;;;;;21.00;18.80;;;31.50;58.70;;;;;;5052675;28;20803;-34
2022/07/20 10:37:38;;;;;;;20.40;18.40;;;31.50;58.90;;;;;;5051914;28;20424;-34
2022/07/20 10:40:04;;;;;;;19.50;17.70;;;31.60;58.90;;;;;;5052734;28;20583;-34
2022/07/20 10:42:34;;;;;;;21.23;19.33;;;31.70;60.20;;;;;;5052559;28;20498;-33
2022/07/20 10:45:20;;;;;;;20.50;18.70;;;31.70;58.70;;;;;;5038825;28;20425;-33
2022/07/20 10:47:50;;;;;;;20.40;18.50;;;31.70;58.30;;;;;;5046391;28;20427;-34
2022/07/20 10:50:21;;;;;;;21.20;19.20;;;31.80;59.70;;;;;;5051092;28;20455;-34
2022/07/20 10:52:49;;;;;;;19.63;17.90;;;31.80;58.80;;;;;;5051003;28;20435;-33
2022/07/20 10:55:32;;;;;;;20.63;18.63;;;31.80;58.10;;;;;;5051201;28;20421;-34
2022/07/20 10:57:58;;;;;;;20.87;18.57;;;31.70;57.00;;;;;;5050469;28;20420;-34
2022/07/20 11:00:30;;;;;;;20.70;18.67;;;31.60;57.60;;;;;;5050841;28;20473;-33
2022/07/20 11:02:57;;;;;;;19.80;17.97;;;31.60;57.70;;;;;;5051004;28;20206;-34
2022/07/20 11:05:23;;;;;;;22.17;19.80;;;31.50;58.30;;;;;;5052121;28;20870;-33
2022/07/20 11:07:49;;;;;;;20.43;18.53;;;31.50;58.30;;;;;;5051638;28;20515;-34
2022/07/20 11:10:26;;;;;;;20.17;18.53;;;31.50;58.60;;;;;;5051712;28;20421;-33
2022/07/20 11:12:58;;;;;;;21.37;19.47;;;31.60;58.90;;;;;;5057211;28;20192;-33
2022/07/20 11:15:36;;;;;;;20.60;18.70;;;31.70;59.50;;;;;;5046312;28;20438;-34
2022/07/20 11:18:01;;;;;;;19.73;17.77;;;31.70;59.80;;;;;;5031591;28;20428;-34
2022/07/20 11:20:27;;;;;;;19.40;17.60;;;31.70;59.40;;;;;;5031112;28;20421;-33
2022/07/20 11:22:56;;;;;;;20.63;18.80;;;31.80;59.70;;;;;;5044056;28;20217;-33
2022/07/20 11:25:24;;;;;;;19.73;17.70;;;31.80;59.20;;;;;;5051440;28;20952;-34
2022/07/20 11:28:03;;;;;;;20.07;18.10;;;31.90;59.80;;;;;;5051279;28;20432;-34
2022/07/20 11:30:35;;;;;;;20.20;18.37;;;31.80;59.60;;;;;;5051660;28;20428;-34
2022/07/20 11:33:01;;;;;;;18.27;16.57;;;31.80;57.80;;;;;;5051700;28;20519;-34
2022/07/20 11:35:28;;;;;;;18.57;16.73;;;31.80;59.70;;;;;;5051549;28;20470;-33
2022/07/20 11:37:54;;;;;;;17.20;15.57;;;31.80;59.40;;;;;;5050856;28;20428;-34
2022/07/20 11:40:21;;;;;;;19.60;15.80;;;31.90;59.50;;;;;;5051607;28;20419;-34
2022/07/20 11:43:08;;;;;;;17.90;16.17;;;31.90;58.60;;;;;;5051440;28;20456;-34
2022/07/20 11:45:35;;;;;;;17.20;15.40;;;31.90;58.60;;;;;;5051323;28;20424;-33
2022/07/20 11:48:03;;;;;;;17.33;15.53;;;31.90;58.80;;;;;;5050708;28;20420;-34
2022/07/20 11:50:33;;;;;;;17.00;15.30;;;32.00;58.60;;;;;;5051090;28;20514;-34
2022/07/20 11:52:59;;;;;;;16.70;15.00;;;32.00;58.40;;;;;;5051360;28;20435;-34
2022/07/20 11:55:35;;;;;;;17.40;15.80;;;31.80;57.00;;;;;;5051202;28;20886;-33
2022/07/20 11:58:02;;;;;;;17.17;15.67;;;31.80;58.90;;;;;;5050696;28;21061;-33
2022/07/20 12:00:29;;;;;;;18.37;16.67;;;31.80;60.10;;;;;;5051048;28;20848;-33
2022/07/20 12:02:56;;;;;;;19.27;16.97;;;31.80;58.30;;;;;;5050926;28;20503;-33
2022/07/20 12:05:22;;;;;;;19.07;17.07;;;31.80;59.50;;;;;;5050796;28;20504;-33
2022/07/20 12:10:35;;;;;;;19.27;17.57;;;31.90;59.40;;;;;;5050835;28;20186;-34
2022/07/20 12:13:07;;;;;;;17.77;16.23;;;31.90;60.60;;;;;;5057324;28;21117;-34
2022/07/20 12:15:33;;;;;;;19.73;17.87;;;31.90;61.10;;;;;;5044889;28;20429;-34
2022/07/20 12:17:59;;;;;;;20.10;18.13;;;31.90;59.60;;;;;;5030221;28;20559;-34
2022/07/20 12:20:26;;;;;;;18.53;16.70;;;31.80;59.00;;;;;;5029483;28;20516;-34
2022/07/20 12:22:57;;;;;;;19.47;17.60;;;31.80;60.90;;;;;;5041860;28;20833;-34
2022/07/20 12:25:38;;;;;;;20.57;18.57;;;31.80;61.50;;;;;;5050519;28;20427;-34
2022/07/20 12:28:04;;;;;;;19.00;17.07;;;31.90;61.40;;;;;;5050058;28;20426;-33
2022/07/20 12:30:37;;;;;;;18.30;16.33;;;31.90;61.50;;;;;;5049281;28;20427;-33
2022/07/20 12:33:13;;;;;;;17.67;15.87;;;31.90;60.10;;;;;;5050629;28;20458;-33
2022/07/20 12:35:41;;;;;;;16.60;15.10;;;32.00;60.30;;;;;;5050692;28;20775;-33
2022/07/20 12:38:08;;;;;;;17.43;15.80;;;32.00;59.90;;;;;;5049564;28;20432;-34
2022/07/20 12:40:46;;;;;;;16.80;15.40;;;32.10;59.10;;;;;;5050436;28;20432;-33
2022/07/20 12:43:34;;;;;;;16.60;14.90;;;32.10;59.70;;;;;;5050156;28;20958;-33
2022/07/20 12:46:10;;;;;;;16.37;14.67;;;32.10;59.30;;;;;;5050416;28;21041;-33